createdAt,value
2022-08-07T00:02:36.495Z,4.25
2022-08-07T00:05:07.709Z,3.90
2022-08-07T00:07:41.232Z,3.47
2022-08-07T00:10:26.005Z,3.95
2022-08-07T00:13:00.101Z,3.40
2022-08-07T00:15:37.812Z,3.45
2022-08-07T00:18:24.439Z,3.63
2022-08-07T00:21:01.661Z,3.30
2022-08-07T00:23:43.393Z,2.78
2022-08-07T00:26:18.903Z,2.80
2022-08-07T00:29:03.804Z,2.78
2022-08-07T00:31:37.340Z,3.10
2022-08-07T00:34:08.554Z,2.92
2022-08-07T00:36:42.929Z,2.90
2022-08-07T00:39:20.648Z,2.30
2022-08-07T00:42:02.350Z,2.40
2022-08-07T00:44:38.399Z,2.83
2022-08-07T00:47:15.840Z,2.08
2022-08-07T00:50:19.279Z,2.65
2022-08-07T00:52:53.984Z,2.67
2022-08-07T00:55:25.323Z,2.70
2022-08-07T00:58:11.035Z,2.65
2022-08-07T01:00:53.646Z,2.72
2022-08-07T01:03:55.928Z,2.72
2022-08-07T01:06:29.690Z,2.42
2022-08-07T01:09:09.861Z,2.70
2022-08-07T01:12:28.751Z,2.55
2022-08-07T01:14:57.091Z,3.03
2022-08-07T01:17:34.867Z,2.38
2022-08-07T01:20:17.535Z,2.40
2022-08-07T01:23:03.717Z,2.58
2022-08-07T01:25:55.880Z,2.55
2022-08-07T01:28:33.513Z,2.80
2022-08-07T01:31:06.622Z,2.30
2022-08-07T01:33:55.740Z,2.78
2022-08-07T01:36:36.421Z,2.67
2022-08-07T01:39:16.765Z,3.05
2022-08-07T01:42:07.333Z,2.80
2022-08-07T01:44:47.939Z,2.72
2022-08-07T01:48:29.553Z,2.95
2022-08-07T01:50:13.588Z,2.78
2022-08-07T01:52:57.302Z,2.90
2022-08-07T01:55:41.645Z,2.80
2022-08-07T01:58:29.099Z,3.22
2022-08-07T02:01:25.587Z,3.03
2022-08-07T02:04:24.134Z,3.15
2022-08-07T02:06:58.542Z,3.10
2022-08-07T02:09:51.976Z,3.08
2022-08-07T02:12:29.318Z,3.53
2022-08-07T02:15:06.009Z,3.38
2022-08-07T02:17:37.512Z,3.55
2022-08-07T02:20:17.408Z,3.08
2022-08-07T02:23:00.180Z,3.25
2022-08-07T02:28:42.346Z,3.10
2022-08-07T02:31:29.129Z,2.90
2022-08-07T02:34:03.310Z,3.70
2022-08-07T02:36:50.771Z,3.28
2022-08-07T02:39:43.181Z,3.65
2022-08-07T02:42:14.683Z,3.03
2022-08-07T02:44:53.528Z,3.10
2022-08-07T02:47:35.068Z,3.05
2022-08-07T02:50:15.318Z,2.92
2022-08-07T02:53:06.817Z,3.22
2022-08-07T02:56:03.251Z,3.03
2022-08-07T02:58:46.975Z,2.85
2022-08-07T03:01:35.714Z,2.95
2022-08-07T03:04:12.672Z,2.78
2022-08-07T03:06:53.189Z,2.70
2022-08-07T03:09:44.758Z,3.33
2022-08-07T03:12:30.975Z,3.50
2022-08-07T03:15:08.677Z,3.10
2022-08-07T03:17:53.359Z,3.15
2022-08-07T03:22:58.788Z,3.30
2022-08-07T03:25:40.155Z,3.40
2022-08-07T03:28:37.302Z,3.10
2022-08-07T03:31:06.971Z,3.10
2022-08-07T03:33:50.905Z,3.00
2022-08-07T03:36:21.774Z,3.03
2022-08-07T03:39:06.487Z,2.95
2022-08-07T03:41:47.620Z,3.35
2022-08-07T03:44:34.268Z,3.80
2022-08-07T03:47:16.903Z,3.35
2022-08-07T03:49:53.420Z,3.67
2022-08-07T03:52:28.453Z,4.18
2022-08-07T03:55:03.316Z,4.07
2022-08-07T03:58:35.082Z,3.40
2022-08-07T04:00:46.154Z,3.28
2022-08-07T04:03:24.023Z,5.25
2022-08-07T04:05:53.247Z,4.30
2022-08-07T04:08:29.647Z,4.45
2022-08-07T04:14:10.457Z,3.67
2022-08-07T04:16:40.452Z,3.75
2022-08-07T04:19:51.176Z,3.45
2022-08-07T04:22:27.448Z,3.38
2022-08-07T04:25:11.832Z,3.35
2022-08-07T04:27:45.826Z,3.05
2022-08-07T04:30:35.909Z,3.22
2022-08-07T04:33:10.172Z,3.28
2022-08-07T04:35:50.192Z,3.28
2022-08-07T04:38:27.941Z,3.42
2022-08-07T04:41:05.156Z,3.05
2022-08-07T04:44:09.729Z,3.25
2022-08-07T04:47:04.761Z,3.42
2022-08-07T04:49:57.434Z,2.90
2022-08-07T04:52:55.825Z,3.13
2022-08-07T04:58:09.597Z,2.97
2022-08-07T05:02:20.535Z,2.88
2022-08-07T05:05:53.154Z,2.85
2022-08-07T05:09:01.561Z,3.15
2022-08-07T05:11:58.704Z,3.20
2022-08-07T05:14:54.549Z,3.08
2022-08-07T05:20:24.320Z,3.10
2022-08-07T05:23:15.842Z,2.78
2022-08-07T05:26:13.890Z,3.30
2022-08-07T05:28:40.763Z,3.05
2022-08-07T05:31:25.009Z,2.90
2022-08-07T05:34:17.507Z,2.75
2022-08-07T05:37:01.460Z,2.60
2022-08-07T05:40:14.055Z,2.50
2022-08-07T05:42:33.774Z,2.65
2022-08-07T05:45:25.996Z,3.13
2022-08-07T05:48:01.407Z,2.85
2022-08-07T05:50:42.872Z,2.78
2022-08-07T05:54:12.341Z,2.80
2022-08-07T05:56:03.145Z,2.90
2022-08-07T05:58:39.235Z,2.53
2022-08-07T06:01:12.562Z,2.60
2022-08-07T06:03:56.915Z,2.80
2022-08-07T06:06:29.515Z,2.47
2022-08-07T06:09:08.050Z,2.42
2022-08-07T06:11:38.164Z,2.75
2022-08-07T06:14:12.538Z,2.20
2022-08-07T06:16:56.319Z,2.58
2022-08-07T06:19:47.924Z,2.15
2022-08-07T06:22:23.306Z,2.47
2022-08-07T06:25:03.185Z,2.63
2022-08-07T06:27:59.946Z,2.70
2022-08-07T06:30:36.235Z,2.45
2022-08-07T06:33:12.648Z,2.45
2022-08-07T06:35:47.802Z,3.45
2022-08-07T06:38:36.517Z,2.90
2022-08-07T06:41:12.970Z,3.13
2022-08-07T06:44:01.792Z,2.72
2022-08-07T06:46:37.987Z,2.67
2022-08-07T06:49:08.366Z,2.33
2022-08-07T06:51:49.577Z,2.50
2022-08-07T06:55:32.587Z,2.42
2022-08-07T06:57:43.559Z,2.20
2022-08-07T07:00:22.520Z,2.45
2022-08-07T07:02:58.054Z,2.40
2022-08-07T07:06:04.111Z,2.30
2022-08-07T07:08:29.860Z,2.15
2022-08-07T07:11:14.480Z,1.75
2022-08-07T07:14:02.508Z,2.15
2022-08-07T07:16:50.657Z,2.10
2022-08-07T07:19:57.263Z,2.40
2022-08-07T07:24:05.957Z,1.90
2022-08-07T07:26:35.302Z,1.92
2022-08-07T07:29:22.904Z,2.20
2022-08-07T07:31:52.706Z,2.25
2022-08-07T07:34:32.466Z,1.63
2022-08-07T07:37:21.766Z,1.83
2022-08-07T07:40:17.565Z,1.85
2022-08-07T07:42:57.567Z,1.80
2022-08-07T07:46:53.673Z,2.20
2022-08-07T07:48:42.154Z,1.83
2022-08-07T07:51:15.616Z,1.75
2022-08-07T07:53:55.669Z,2.20
2022-08-07T07:56:31.831Z,1.75
2022-08-07T07:59:09.851Z,1.75
2022-08-07T08:02:02.666Z,2.08
2022-08-07T08:04:41.668Z,1.85
2022-08-07T08:07:11.126Z,1.60
2022-08-07T08:09:52.017Z,1.70
2022-08-07T08:12:52.382Z,1.85
2022-08-07T08:15:28.063Z,2.00
2022-08-07T08:18:20.228Z,1.80
2022-08-07T08:20:49.276Z,1.77
2022-08-07T08:23:27.922Z,1.80
2022-08-07T08:26:07.167Z,1.60
2022-08-07T08:28:43.307Z,1.63
2022-08-07T08:31:59.086Z,1.50
2022-08-07T08:34:29.341Z,1.80
2022-08-07T08:37:03.470Z,1.67
2022-08-07T08:39:55.041Z,1.90
2022-08-07T08:46:32.444Z,1.85
2022-08-07T08:49:32.995Z,2.03
2022-08-07T08:52:24.545Z,1.63
2022-08-07T08:55:54.784Z,2.28
2022-08-07T08:59:12.825Z,1.45
2022-08-07T09:02:34.641Z,1.42
2022-08-07T09:05:42.118Z,1.70
2022-08-07T09:08:34.115Z,1.80
2022-08-07T09:11:50.814Z,1.90
2022-08-07T09:14:36.550Z,1.98
2022-08-07T09:17:19.879Z,1.90
2022-08-07T09:20:37.123Z,2.35
2022-08-07T09:24:53.691Z,1.60
2022-08-07T09:27:04.525Z,2.20
2022-08-07T09:30:08.665Z,1.90
2022-08-07T09:33:53.087Z,2.03
2022-08-07T09:37:00.841Z,1.88
2022-08-07T09:39:57.944Z,1.67
2022-08-07T09:43:12.218Z,2.60
2022-08-07T09:47:50.720Z,1.67
2022-08-07T09:50:02.204Z,2.10
2022-08-07T09:52:37.074Z,1.60
2022-08-07T09:56:03.555Z,1.85
2022-08-07T09:58:59.441Z,5.07
2022-08-07T10:04:57.715Z,1.50
2022-08-07T10:07:39.806Z,1.52
2022-08-07T10:11:59.452Z,1.40
2022-08-07T10:14:32.548Z,1.20
2022-08-07T10:18:01.777Z,1.20
2022-08-07T10:21:02.737Z,1.20
2022-08-07T10:24:10.058Z,1.25
2022-08-07T10:27:10.552Z,1.50
2022-08-07T10:30:22.782Z,1.70
2022-08-07T10:33:13.068Z,1.23
2022-08-07T10:36:29.973Z,1.50
2022-08-07T10:39:41.558Z,1.67
2022-08-07T10:43:08.504Z,1.60
2022-08-07T10:46:10.739Z,1.58
2022-08-07T10:49:15.759Z,1.48
2022-08-07T10:52:31.703Z,1.70
2022-08-07T10:55:39.748Z,1.30
2022-08-07T10:59:00.059Z,1.50
2022-08-07T11:02:32.774Z,1.58
2022-08-07T11:05:50.554Z,1.50
2022-08-07T11:09:02.319Z,1.70
2022-08-07T11:11:53.916Z,1.30
2022-08-07T11:15:01.074Z,1.40
2022-08-07T11:17:42.840Z,1.42
2022-08-07T11:20:51.857Z,1.42
2022-08-07T11:23:49.925Z,1.67
2022-08-07T11:26:50.224Z,1.50
2022-08-07T11:29:47.282Z,1.60
2022-08-07T11:32:45.838Z,1.30
2022-08-07T11:35:28.466Z,1.17
2022-08-07T11:38:28.326Z,1.50
2022-08-07T11:41:28.285Z,1.42
2022-08-07T11:47:58.825Z,1.30
2022-08-07T11:51:01.460Z,1.33
2022-08-07T11:54:01.613Z,1.35
2022-08-07T11:56:58.870Z,1.70
2022-08-07T12:00:12.653Z,1.73
2022-08-07T12:03:44.448Z,2.05
2022-08-07T12:06:37.358Z,1.52
2022-08-07T12:09:23.366Z,1.52
2022-08-07T12:12:23.794Z,1.85
2022-08-07T12:15:17.218Z,1.45
2022-08-07T12:18:22.171Z,1.20
2022-08-07T12:22:36.542Z,1.40
2022-08-07T12:25:02.619Z,1.60
2022-08-07T12:28:05.769Z,1.27
2022-08-07T12:30:59.763Z,1.50
2022-08-07T12:33:56.418Z,1.70
2022-08-07T12:36:36.338Z,1.60
2022-08-07T12:39:42.873Z,1.40
2022-08-07T12:42:10.172Z,1.30
2022-08-07T12:44:45.184Z,1.40
2022-08-07T12:47:38.193Z,1.30
2022-08-07T12:50:49.165Z,1.47
2022-08-07T12:54:37.399Z,1.58
2022-08-07T12:57:09.419Z,1.40
2022-08-07T12:59:55.383Z,1.73
2022-08-07T13:02:59.003Z,1.58
2022-08-07T13:06:02.814Z,1.45
2022-08-07T13:08:42.662Z,1.50
2022-08-07T13:15:09.406Z,1.00
2022-08-07T13:18:06.843Z,1.63
2022-08-07T13:20:55.925Z,1.30
2022-08-07T13:24:04.075Z,1.30
2022-08-07T13:26:46.173Z,1.38
2022-08-07T13:29:53.730Z,1.33
2022-08-07T13:32:59.678Z,2.85
2022-08-07T13:36:07.177Z,2.42
2022-08-07T13:38:59.103Z,2.92
2022-08-07T13:41:49.774Z,1.00
2022-08-07T13:44:40.581Z,1.23
2022-08-07T13:47:15.830Z,1.27
2022-08-07T13:50:34.442Z,1.27
2022-08-07T13:52:52.197Z,1.88
2022-08-07T13:55:26.328Z,1.30
2022-08-07T13:58:20.448Z,1.40
2022-08-07T14:04:21.391Z,1.45
2022-08-07T14:06:54.206Z,1.40
2022-08-07T14:10:02.407Z,1.40
2022-08-07T14:12:54.907Z,1.38
2022-08-07T14:15:50.765Z,1.50
2022-08-07T14:18:38.169Z,1.77
2022-08-07T14:22:02.853Z,1.48
2022-08-07T14:24:42.163Z,1.63
2022-08-07T14:28:09.897Z,1.50
2022-08-07T14:30:11.713Z,1.27
2022-08-07T14:32:51.239Z,1.30
2022-08-07T14:35:45.292Z,1.55
2022-08-07T14:38:26.147Z,1.77
2022-08-07T14:41:06.335Z,2.05
2022-08-07T14:44:07.952Z,1.98
2022-08-07T14:46:51.725Z,1.83
2022-08-07T14:52:38.161Z,1.60
2022-08-07T14:55:17.903Z,1.50
2022-08-07T14:57:59.130Z,1.33
2022-08-07T15:00:35.896Z,1.05
2022-08-07T15:03:21.960Z,1.30
2022-08-07T15:06:15.103Z,1.52
2022-08-07T15:08:54.845Z,1.50
2022-08-07T15:11:53.037Z,1.58
2022-08-07T15:14:25.389Z,1.50
2022-08-07T15:17:16.878Z,1.58
2022-08-07T15:22:51.658Z,1.40
2022-08-07T15:28:32.478Z,1.63
2022-08-07T15:31:57.987Z,1.48
2022-08-07T15:34:14.923Z,2.08
2022-08-07T15:37:04.660Z,1.63
2022-08-07T15:39:56.948Z,1.20
2022-08-07T15:43:05.161Z,1.55
2022-08-07T15:54:40.728Z,1.35
2022-08-07T15:57:39.112Z,1.60
2022-08-07T16:00:31.258Z,1.23
2022-08-07T16:03:20.971Z,1.25
2022-08-07T16:06:03.394Z,1.52
2022-08-07T16:08:38.930Z,1.65
2022-08-07T16:11:30.714Z,1.48
2022-08-07T16:14:37.373Z,1.35
2022-08-07T16:20:41.616Z,1.40
2022-08-07T16:23:59.972Z,1.25
2022-08-07T16:27:17.843Z,2.80
2022-08-07T16:30:30.317Z,1.75
2022-08-07T16:34:02.170Z,1.55
2022-08-07T16:37:02.311Z,1.55
2022-08-07T16:40:04.225Z,1.38
2022-08-07T16:43:10.506Z,1.58
2022-08-07T16:50:28.093Z,1.90
2022-08-07T16:53:14.852Z,1.40
2022-08-07T16:56:21.650Z,1.50
2022-08-07T16:59:46.928Z,1.63
2022-08-07T17:02:53.933Z,2.00
2022-08-07T17:06:29.811Z,1.77
2022-08-07T17:10:05.465Z,1.80
2022-08-07T17:12:44.766Z,1.65
2022-08-07T17:15:15.592Z,1.95
2022-08-07T17:18:11.525Z,2.72
2022-08-07T17:20:54.751Z,2.53
2022-08-07T17:23:32.053Z,1.95
2022-08-07T17:26:39.379Z,1.60
2022-08-07T17:30:13.938Z,1.27
2022-08-07T17:34:09.428Z,1.90
2022-08-07T17:36:26.224Z,2.20
2022-08-07T17:39:20.435Z,1.70
2022-08-07T17:42:11.693Z,1.80
2022-08-07T17:45:19.651Z,2.00
2022-08-07T17:48:30.663Z,2.90
2022-08-07T17:51:21.204Z,2.15
2022-08-07T17:54:40.098Z,4.82
2022-08-07T17:57:58.386Z,2.65
2022-08-07T18:00:48.663Z,3.33
2022-08-07T18:04:04.214Z,2.67
2022-08-07T18:06:43.332Z,2.42
2022-08-07T18:09:48.083Z,2.15
2022-08-07T18:12:42.751Z,2.17
2022-08-07T18:15:33.608Z,2.20
2022-08-07T18:18:46.459Z,2.38
2022-08-07T18:21:58.558Z,3.47
2022-08-07T18:27:43.971Z,4.32
2022-08-07T18:30:31.704Z,3.67
2022-08-07T18:33:54.873Z,1.95
2022-08-07T18:36:54.176Z,2.50
2022-08-07T18:40:08.769Z,2.22
2022-08-07T18:42:45.919Z,2.10
2022-08-07T18:46:21.801Z,2.20
2022-08-07T18:50:30.132Z,3.38
2022-08-07T18:52:53.720Z,2.28
2022-08-07T18:55:55.980Z,2.10
2022-08-07T18:59:02.979Z,2.58
2022-08-07T19:02:17.944Z,2.85
2022-08-07T19:05:15.082Z,3.70
2022-08-07T19:08:16.429Z,3.58
2022-08-07T19:11:35.222Z,3.20
2022-08-07T19:14:51.050Z,2.00
2022-08-07T19:18:01.140Z,2.53
2022-08-07T19:20:35.359Z,2.85
2022-08-07T19:23:57.940Z,2.75
2022-08-07T19:27:01.975Z,2.97
2022-08-07T19:30:57.589Z,4.13
2022-08-07T19:32:26.934Z,4.38
2022-08-07T19:35:18.989Z,3.20
2022-08-07T19:38:05.138Z,3.90
2022-08-07T19:40:53.674Z,3.63
2022-08-07T19:43:43.535Z,3.00
2022-08-07T19:46:31.441Z,8.98
2022-08-07T19:49:19.114Z,12.93
2022-08-07T19:52:18.434Z,19.15
2022-08-07T19:54:56.176Z,6.80
2022-08-07T19:57:59.840Z,4.40
2022-08-07T20:00:34.504Z,6.43
2022-08-07T20:03:34.660Z,7.95
2022-08-07T20:06:15.328Z,9.55
2022-08-07T20:08:48.874Z,5.53
2022-08-07T20:12:00.956Z,5.70
2022-08-07T20:14:33.999Z,4.03
2022-08-07T20:17:11.783Z,2.97
2022-08-07T20:19:49.514Z,3.20
2022-08-07T20:22:34.039Z,4.63
2022-08-07T20:25:19.821Z,4.93
2022-08-07T20:27:58.022Z,3.90
2022-08-07T20:30:46.882Z,3.88
2022-08-07T20:33:36.637Z,4.38
2022-08-07T20:36:17.376Z,4.18
2022-08-07T20:38:56.794Z,3.60
2022-08-07T20:41:38.386Z,4.55
2022-08-07T20:44:13.073Z,4.30
2022-08-07T20:47:05.680Z,4.65
2022-08-07T20:49:59.873Z,7.45
2022-08-07T20:52:51.442Z,7.07
2022-08-07T20:55:23.902Z,6.28
2022-08-07T20:58:12.074Z,4.43
2022-08-07T21:00:57.523Z,3.10
2022-08-07T21:03:29.675Z,3.72
2022-08-07T21:06:12.316Z,3.70
2022-08-07T21:08:58.832Z,4.82
2022-08-07T21:11:50.055Z,5.57
2022-08-07T21:14:33.905Z,4.80
2022-08-07T21:18:02.258Z,4.65
2022-08-07T21:20:26.589Z,4.90
2022-08-07T21:22:58.172Z,4.18
2022-08-07T21:25:42.676Z,4.90
2022-08-07T21:28:48.234Z,4.10
2022-08-07T21:32:42.377Z,4.45
2022-08-07T21:35:11.544Z,4.50
2022-08-07T21:37:58.308Z,4.30
2022-08-07T21:40:50.444Z,3.65
2022-08-07T21:43:56.943Z,4.05
2022-08-07T21:46:43.853Z,4.30
2022-08-07T21:50:00.888Z,4.65
2022-08-07T21:53:00.048Z,3.90
2022-08-07T21:56:35.862Z,4.03
2022-08-07T21:59:21.348Z,3.80
2022-08-07T22:02:18.657Z,3.60
2022-08-07T22:05:05.432Z,4.90
2022-08-07T22:07:58.723Z,3.70
2022-08-07T22:10:42.298Z,3.65
2022-08-07T22:13:52.165Z,5.22
2022-08-07T22:16:59.353Z,3.97
2022-08-07T22:19:54.347Z,3.78
2022-08-07T22:22:44.569Z,3.50
2022-08-07T22:25:51.503Z,3.47
2022-08-07T22:28:53.230Z,3.20
2022-08-07T22:31:56.213Z,3.72
2022-08-07T22:35:02.503Z,4.00
2022-08-07T22:38:01.744Z,4.32
2022-08-07T22:41:20.457Z,3.80
2022-08-07T22:44:06.091Z,3.50
2022-08-07T22:47:24.956Z,3.75
2022-08-07T22:50:33.299Z,3.70
2022-08-07T22:54:07.110Z,3.70
2022-08-07T22:57:02.877Z,3.40
2022-08-07T23:00:08.273Z,3.28
2022-08-07T23:03:09.436Z,3.40
2022-08-07T23:06:07.291Z,3.67
2022-08-07T23:10:06.455Z,7.45
2022-08-07T23:12:47.041Z,4.00
2022-08-07T23:16:06.515Z,3.70
2022-08-07T23:19:19.472Z,4.05
2022-08-07T23:22:22.836Z,3.22
2022-08-07T23:25:33.260Z,3.47
2022-08-07T23:28:54.657Z,2.97
2022-08-07T23:34:24.041Z,3.85
2022-08-07T23:35:25.787Z,4.75
2022-08-07T23:38:36.306Z,3.70
2022-08-07T23:41:15.506Z,3.22
2022-08-07T23:44:29.737Z,3.60
2022-08-07T23:47:26.114Z,3.67
2022-08-07T23:50:44.030Z,3.83
2022-08-07T23:53:49.997Z,4.13
2022-08-07T23:56:37.860Z,3.50
